sensor_id;sensor_type;location;lat;lon;timestamp;P1;durP1;ratioP1;P2;durP2;ratioP2
62673;SDS011;62269;47.594;17.638;2022-11-15T00:00:39;23.77;;;17.40;;
62673;SDS011;62269;47.594;17.638;2022-11-15T00:01:26;24.23;;;18.37;;
62673;SDS011;62269;47.594;17.638;2022-11-15T00:02:12;25.48;;;18.73;;
62673;SDS011;62269;47.594;17.638;2022-11-15T00:03:00;23.60;;;18.58;;
62673;SDS011;62269;47.594;17.638;2022-11-15T00:03:50;24.33;;;19.02;;
62673;SDS011;62269;47.594;17.638;2022-11-15T00:04:37;22.92;;;17.25;;
62673;SDS011;62269;47.594;17.638;2022-11-15T00:05:24;24.45;;;18.55;;
62673;SDS011;62269;47.594;17.638;2022-11-15T00:06:12;24.02;;;18.42;;
62673;SDS011;62269;47.594;17.638;2022-11-15T00:06:59;25.08;;;18.80;;
62673;SDS011;62269;47.594;17.638;2022-11-15T00:07:46;22.08;;;18.00;;
62673;SDS011;62269;47.594;17.638;2022-11-15T00:08:41;26.45;;;19.17;;
62673;SDS011;62269;47.594;17.638;2022-11-15T00:09:28;25.33;;;19.27;;
62673;SDS011;62269;47.594;17.638;2022-11-15T00:10:15;25.12;;;18.73;;
62673;SDS011;62269;47.594;17.638;2022-11-15T00:11:02;26.50;;;20.23;;
62673;SDS011;62269;47.594;17.638;2022-11-15T00:11:50;27.30;;;20.55;;
62673;SDS011;62269;47.594;17.638;2022-11-15T00:12:38;26.73;;;20.30;;
62673;SDS011;62269;47.594;17.638;2022-11-15T00:13:25;26.90;;;20.80;;
62673;SDS011;62269;47.594;17.638;2022-11-15T00:14:12;26.15;;;21.15;;
62673;SDS011;62269;47.594;17.638;2022-11-15T00:14:59;27.08;;;21.42;;
62673;SDS011;62269;47.594;17.638;2022-11-15T00:15:46;27.13;;;19.83;;
62673;SDS011;62269;47.594;17.638;2022-11-15T00:16:33;28.12;;;20.42;;
62673;SDS011;62269;47.594;17.638;2022-11-15T00:17:20;26.30;;;20.42;;
62673;SDS011;62269;47.594;17.638;2022-11-15T00:18:13;28.45;;;20.75;;
62673;SDS011;62269;47.594;17.638;2022-11-15T00:19:00;29.90;;;22.50;;
62673;SDS011;62269;47.594;17.638;2022-11-15T00:19:49;30.37;;;21.45;;
62673;SDS011;62269;47.594;17.638;2022-11-15T00:20:36;30.50;;;21.27;;
62673;SDS011;62269;47.594;17.638;2022-11-15T00:21:25;29.83;;;22.52;;
62673;SDS011;62269;47.594;17.638;2022-11-15T00:22:13;31.98;;;23.00;;
62673;SDS011;62269;47.594;17.638;2022-11-15T00:23:02;29.10;;;22.87;;
62673;SDS011;62269;47.594;17.638;2022-11-15T00:23:50;31.10;;;23.20;;
62673;SDS011;62269;47.594;17.638;2022-11-15T00:24:37;27.48;;;22.08;;
62673;SDS011;62269;47.594;17.638;2022-11-15T00:25:24;32.45;;;22.30;;
62673;SDS011;62269;47.594;17.638;2022-11-15T00:26:11;32.17;;;23.17;;
62673;SDS011;62269;47.594;17.638;2022-11-15T00:26:59;30.52;;;22.73;;
62673;SDS011;62269;47.594;17.638;2022-11-15T00:27:46;26.52;;;20.75;;
62673;SDS011;62269;47.594;17.638;2022-11-15T00:28:33;27.67;;;21.37;;
62673;SDS011;62269;47.594;17.638;2022-11-15T00:29:20;29.23;;;21.65;;
62673;SDS011;62269;47.594;17.638;2022-11-15T00:30:07;28.62;;;22.10;;
62673;SDS011;62269;47.594;17.638;2022-11-15T00:31:04;27.77;;;20.80;;
62673;SDS011;62269;47.594;17.638;2022-11-15T00:31:53;28.70;;;21.08;;
62673;SDS011;62269;47.594;17.638;2022-11-15T00:32:40;26.83;;;20.77;;
62673;SDS011;62269;47.594;17.638;2022-11-15T00:33:26;29.50;;;21.02;;
62673;SDS011;62269;47.594;17.638;2022-11-15T00:34:14;27.37;;;20.67;;
62673;SDS011;62269;47.594;17.638;2022-11-15T00:35:01;29.12;;;22.13;;
62673;SDS011;62269;47.594;17.638;2022-11-15T00:35:47;27.35;;;21.85;;
62673;SDS011;62269;47.594;17.638;2022-11-15T00:36:34;29.40;;;21.10;;
62673;SDS011;62269;47.594;17.638;2022-11-15T00:37:21;28.48;;;20.62;;
62673;SDS011;62269;47.594;17.638;2022-11-15T00:38:08;27.67;;;21.85;;
62673;SDS011;62269;47.594;17.638;2022-11-15T00:38:55;28.70;;;22.45;;
62673;SDS011;62269;47.594;17.638;2022-11-15T00:39:42;27.98;;;21.77;;
62673;SDS011;62269;47.594;17.638;2022-11-15T00:40:29;30.12;;;22.08;;
62673;SDS011;62269;47.594;17.638;2022-11-15T00:41:16;31.62;;;22.90;;
62673;SDS011;62269;47.594;17.638;2022-11-15T00:42:03;29.33;;;22.27;;
62673;SDS011;62269;47.594;17.638;2022-11-15T00:42:50;27.75;;;19.92;;
62673;SDS011;62269;47.594;17.638;2022-11-15T00:43:37;29.20;;;21.20;;
62673;SDS011;62269;47.594;17.638;2022-11-15T00:44:26;29.00;;;21.95;;
62673;SDS011;62269;47.594;17.638;2022-11-15T00:45:13;29.05;;;21.27;;
62673;SDS011;62269;47.594;17.638;2022-11-15T00:46:00;28.60;;;21.40;;
62673;SDS011;62269;47.594;17.638;2022-11-15T00:46:48;29.73;;;21.75;;
62673;SDS011;62269;47.594;17.638;2022-11-15T00:47:35;27.52;;;21.55;;
62673;SDS011;62269;47.594;17.638;2022-11-15T00:48:22;27.23;;;21.98;;
62673;SDS011;62269;47.594;17.638;2022-11-15T00:49:09;25.90;;;21.42;;
62673;SDS011;62269;47.594;17.638;2022-11-15T00:49:56;28.35;;;21.60;;
62673;SDS011;62269;47.594;17.638;2022-11-15T00:50:43;27.90;;;21.37;;
62673;SDS011;62269;47.594;17.638;2022-11-15T00:51:30;26.80;;;20.58;;
62673;SDS011;62269;47.594;17.638;2022-11-15T00:52:17;29.83;;;22.00;;
62673;SDS011;62269;47.594;17.638;2022-11-15T00:53:04;29.55;;;22.45;;
62673;SDS011;62269;47.594;17.638;2022-11-15T00:53:51;28.25;;;20.60;;
62673;SDS011;62269;47.594;17.638;2022-11-15T00:54:38;26.83;;;20.73;;
62673;SDS011;62269;47.594;17.638;2022-11-15T00:55:24;29.60;;;20.83;;
62673;SDS011;62269;47.594;17.638;2022-11-15T00:56:11;27.98;;;21.45;;
62673;SDS011;62269;47.594;17.638;2022-11-15T00:56:58;26.12;;;20.48;;
62673;SDS011;62269;47.594;17.638;2022-11-15T00:57:45;29.02;;;20.10;;
62673;SDS011;62269;47.594;17.638;2022-11-15T00:58:32;27.70;;;21.08;;
62673;SDS011;62269;47.594;17.638;2022-11-15T00:59:19;26.45;;;20.23;;
62673;SDS011;62269;47.594;17.638;2022-11-15T01:00:07;29.17;;;22.75;;
62673;SDS011;62269;47.594;17.638;2022-11-15T01:00:54;32.70;;;21.05;;
62673;SDS011;62269;47.594;17.638;2022-11-15T01:01:41;27.90;;;21.50;;
62673;SDS011;62269;47.594;17.638;2022-11-15T01:02:28;29.65;;;20.67;;
62673;SDS011;62269;47.594;17.638;2022-11-15T01:03:15;26.90;;;20.17;;
62673;SDS011;62269;47.594;17.638;2022-11-15T01:04:02;28.75;;;20.83;;
62673;SDS011;62269;47.594;17.638;2022-11-15T01:04:49;27.55;;;20.85;;
62673;SDS011;62269;47.594;17.638;2022-11-15T01:05:39;35.10;;;22.85;;
62673;SDS011;62269;47.594;17.638;2022-11-15T01:06:26;29.35;;;21.45;;
62673;SDS011;62269;47.594;17.638;2022-11-15T01:07:13;32.65;;;22.15;;
62673;SDS011;62269;47.594;17.638;2022-11-15T01:08:00;30.25;;;23.58;;
62673;SDS011;62269;47.594;17.638;2022-11-15T01:08:47;28.73;;;22.08;;
62673;SDS011;62269;47.594;17.638;2022-11-15T01:09:34;33.28;;;23.85;;
62673;SDS011;62269;47.594;17.638;2022-11-15T01:10:21;29.55;;;22.27;;
62673;SDS011;62269;47.594;17.638;2022-11-15T01:11:10;28.87;;;21.87;;
62673;SDS011;62269;47.594;17.638;2022-11-15T01:11:58;29.85;;;21.70;;
62673;SDS011;62269;47.594;17.638;2022-11-15T01:12:45;33.40;;;24.33;;
62673;SDS011;62269;47.594;17.638;2022-11-15T01:13:35;29.17;;;21.62;;
62673;SDS011;62269;47.594;17.638;2022-11-15T01:14:23;30.08;;;21.45;;
62673;SDS011;62269;47.594;17.638;2022-11-15T01:15:11;32.50;;;23.62;;
62673;SDS011;62269;47.594;17.638;2022-11-15T01:15:58;31.48;;;22.75;;
62673;SDS011;62269;47.594;17.638;2022-11-15T01:16:45;30.92;;;23.02;;
62673;SDS011;62269;47.594;17.638;2022-11-15T01:17:32;31.10;;;23.50;;
62673;SDS011;62269;47.594;17.638;2022-11-15T01:18:19;29.10;;;22.83;;
62673;SDS011;62269;47.594;17.638;2022-11-15T01:19:06;30.60;;;22.05;;
62673;SDS011;62269;47.594;17.638;2022-11-15T01:19:53;32.55;;;22.45;;
62673;SDS011;62269;47.594;17.638;2022-11-15T01:20:40;28.85;;;21.70;;
62673;SDS011;62269;47.594;17.638;2022-11-15T01:21:28;28.85;;;22.37;;
62673;SDS011;62269;47.594;17.638;2022-11-15T01:22:15;28.27;;;22.30;;
62673;SDS011;62269;47.594;17.638;2022-11-15T01:23:02;29.90;;;22.65;;
62673;SDS011;62269;47.594;17.638;2022-11-15T01:23:52;31.55;;;23.60;;
62673;SDS011;62269;47.594;17.638;2022-11-15T01:24:42;31.65;;;22.37;;
62673;SDS011;62269;47.594;17.638;2022-11-15T01:25:29;32.15;;;22.73;;
62673;SDS011;62269;47.594;17.638;2022-11-15T01:26:16;31.62;;;23.55;;
62673;SDS011;62269;47.594;17.638;2022-11-15T01:27:03;29.75;;;22.27;;
62673;SDS011;62269;47.594;17.638;2022-11-15T01:27:50;36.83;;;24.45;;
62673;SDS011;62269;47.594;17.638;2022-11-15T01:28:37;31.12;;;23.55;;
62673;SDS011;62269;47.594;17.638;2022-11-15T01:29:25;33.55;;;22.87;;
62673;SDS011;62269;47.594;17.638;2022-11-15T01:30:12;33.35;;;24.00;;
62673;SDS011;62269;47.594;17.638;2022-11-15T01:31:03;30.45;;;22.85;;
62673;SDS011;62269;47.594;17.638;2022-11-15T01:31:52;29.65;;;22.85;;
62673;SDS011;62269;47.594;17.638;2022-11-15T01:32:40;30.15;;;22.13;;
62673;SDS011;62269;47.594;17.638;2022-11-15T01:33:27;29.95;;;22.00;;
62673;SDS011;62269;47.594;17.638;2022-11-15T01:34:15;30.37;;;21.50;;
62673;SDS011;62269;47.594;17.638;2022-11-15T01:35:02;28.95;;;21.23;;
62673;SDS011;62269;47.594;17.638;2022-11-15T01:35:49;30.10;;;21.70;;
62673;SDS011;62269;47.594;17.638;2022-11-15T01:36:36;29.77;;;21.42;;
62673;SDS011;62269;47.594;17.638;2022-11-15T01:37:23;30.60;;;22.15;;
62673;SDS011;62269;47.594;17.638;2022-11-15T01:38:10;32.97;;;22.83;;
62673;SDS011;62269;47.594;17.638;2022-11-15T01:38:57;35.47;;;23.87;;
62673;SDS011;62269;47.594;17.638;2022-11-15T01:39:45;34.17;;;23.23;;
62673;SDS011;62269;47.594;17.638;2022-11-15T01:40:32;32.65;;;23.38;;
62673;SDS011;62269;47.594;17.638;2022-11-15T01:41:20;33.00;;;23.60;;
62673;SDS011;62269;47.594;17.638;2022-11-15T01:42:12;31.45;;;23.35;;
62673;SDS011;62269;47.594;17.638;2022-11-15T01:43:17;30.73;;;22.45;;
62673;SDS011;62269;47.594;17.638;2022-11-15T01:45:20;31.90;;;21.40;;
62673;SDS011;62269;47.594;17.638;2022-11-15T01:47:23;30.70;;;21.42;;
62673;SDS011;62269;47.594;17.638;2022-11-15T01:48:12;31.87;;;22.37;;
62673;SDS011;62269;47.594;17.638;2022-11-15T01:49:01;28.95;;;21.98;;
62673;SDS011;62269;47.594;17.638;2022-11-15T01:49:54;32.13;;;23.33;;
62673;SDS011;62269;47.594;17.638;2022-11-15T01:50:43;30.05;;;22.85;;
62673;SDS011;62269;47.594;17.638;2022-11-15T01:51:31;30.95;;;21.73;;
62673;SDS011;62269;47.594;17.638;2022-11-15T01:52:20;30.40;;;22.62;;
62673;SDS011;62269;47.594;17.638;2022-11-15T01:53:08;31.95;;;23.73;;
62673;SDS011;62269;47.594;17.638;2022-11-15T01:53:58;29.67;;;21.92;;
62673;SDS011;62269;47.594;17.638;2022-11-15T01:54:52;32.15;;;23.08;;
62673;SDS011;62269;47.594;17.638;2022-11-15T01:55:44;29.50;;;21.98;;
62673;SDS011;62269;47.594;17.638;2022-11-15T01:56:32;30.00;;;22.55;;
62673;SDS011;62269;47.594;17.638;2022-11-15T01:57:22;28.10;;;21.20;;
62673;SDS011;62269;47.594;17.638;2022-11-15T01:58:09;30.40;;;22.40;;
62673;SDS011;62269;47.594;17.638;2022-11-15T01:58:56;33.58;;;24.55;;
62673;SDS011;62269;47.594;17.638;2022-11-15T01:59:44;27.77;;;20.75;;
62673;SDS011;62269;47.594;17.638;2022-11-15T02:00:31;33.65;;;22.75;;
62673;SDS011;62269;47.594;17.638;2022-11-15T02:01:18;31.05;;;22.50;;
62673;SDS011;62269;47.594;17.638;2022-11-15T02:02:06;31.10;;;23.35;;
62673;SDS011;62269;47.594;17.638;2022-11-15T02:02:53;31.23;;;21.67;;
62673;SDS011;62269;47.594;17.638;2022-11-15T02:03:50;28.60;;;21.60;;
62673;SDS011;62269;47.594;17.638;2022-11-15T02:04:42;29.30;;;22.33;;
62673;SDS011;62269;47.594;17.638;2022-11-15T02:05:31;31.92;;;22.27;;
62673;SDS011;62269;47.594;17.638;2022-11-15T02:06:18;29.25;;;21.60;;
62673;SDS011;62269;47.594;17.638;2022-11-15T02:07:05;30.52;;;20.67;;
62673;SDS011;62269;47.594;17.638;2022-11-15T02:07:55;32.92;;;21.48;;
62673;SDS011;62269;47.594;17.638;2022-11-15T02:08:42;27.20;;;21.33;;
62673;SDS011;62269;47.594;17.638;2022-11-15T02:09:30;29.40;;;21.27;;
62673;SDS011;62269;47.594;17.638;2022-11-15T02:10:18;29.65;;;21.98;;
62673;SDS011;62269;47.594;17.638;2022-11-15T02:11:08;30.75;;;21.52;;
62673;SDS011;62269;47.594;17.638;2022-11-15T02:11:55;27.20;;;20.83;;
62673;SDS011;62269;47.594;17.638;2022-11-15T02:12:42;27.98;;;21.52;;
62673;SDS011;62269;47.594;17.638;2022-11-15T02:13:29;30.92;;;22.15;;
62673;SDS011;62269;47.594;17.638;2022-11-15T02:14:17;31.12;;;22.75;;
62673;SDS011;62269;47.594;17.638;2022-11-15T02:15:06;27.95;;;22.37;;
62673;SDS011;62269;47.594;17.638;2022-11-15T02:22:46;30.17;;;21.42;;
62673;SDS011;62269;47.594;17.638;2022-11-15T02:31:13;29.27;;;19.77;;
62673;SDS011;62269;47.594;17.638;2022-11-15T02:32:39;27.85;;;20.95;;
62673;SDS011;62269;47.594;17.638;2022-11-15T02:34:33;33.67;;;22.37;;
62673;SDS011;62269;47.594;17.638;2022-11-15T02:35:33;31.05;;;22.92;;
62673;SDS011;62269;47.594;17.638;2022-11-15T02:37:17;30.75;;;21.98;;
62673;SDS011;62269;47.594;17.638;2022-11-15T02:39:07;30.95;;;22.52;;
62673;SDS011;62269;47.594;17.638;2022-11-15T02:40:28;30.20;;;21.90;;
62673;SDS011;62269;47.594;17.638;2022-11-15T02:41:16;31.35;;;22.33;;
62673;SDS011;62269;47.594;17.638;2022-11-15T02:42:21;28.17;;;20.62;;
62673;SDS011;62269;47.594;17.638;2022-11-15T02:43:37;30.35;;;21.40;;
62673;SDS011;62269;47.594;17.638;2022-11-15T02:44:45;30.30;;;20.65;;
62673;SDS011;62269;47.594;17.638;2022-11-15T02:45:36;30.02;;;21.33;;
62673;SDS011;62269;47.594;17.638;2022-11-15T02:47:59;29.58;;;21.02;;
62673;SDS011;62269;47.594;17.638;2022-11-15T02:48:48;30.12;;;22.27;;
62673;SDS011;62269;47.594;17.638;2022-11-15T02:49:35;29.30;;;21.02;;
62673;SDS011;62269;47.594;17.638;2022-11-15T02:50:25;28.38;;;21.40;;
62673;SDS011;62269;47.594;17.638;2022-11-15T02:51:13;32.88;;;22.85;;
62673;SDS011;62269;47.594;17.638;2022-11-15T02:52:01;27.25;;;21.25;;
62673;SDS011;62269;47.594;17.638;2022-11-15T02:52:48;29.55;;;22.62;;
62673;SDS011;62269;47.594;17.638;2022-11-15T02:53:35;29.25;;;22.35;;
62673;SDS011;62269;47.594;17.638;2022-11-15T02:54:23;30.45;;;21.42;;
62673;SDS011;62269;47.594;17.638;2022-11-15T02:55:28;30.85;;;21.87;;
62673;SDS011;62269;47.594;17.638;2022-11-15T02:56:15;30.92;;;22.58;;
62673;SDS011;62269;47.594;17.638;2022-11-15T02:57:04;33.00;;;23.52;;
62673;SDS011;62269;47.594;17.638;2022-11-15T02:58:06;29.65;;;21.67;;
62673;SDS011;62269;47.594;17.638;2022-11-15T03:00:12;25.90;;;20.42;;
62673;SDS011;62269;47.594;17.638;2022-11-15T03:02:18;35.85;;;25.10;;
62673;SDS011;62269;47.594;17.638;2022-11-15T03:03:22;32.78;;;22.23;;
62673;SDS011;62269;47.594;17.638;2022-11-15T03:06:55;33.78;;;24.55;;
62673;SDS011;62269;47.594;17.638;2022-11-15T03:08:09;33.05;;;24.70;;
62673;SDS011;62269;47.594;17.638;2022-11-15T03:09:40;30.58;;;24.67;;
62673;SDS011;62269;47.594;17.638;2022-11-15T03:10:34;34.50;;;24.12;;
62673;SDS011;62269;47.594;17.638;2022-11-15T03:15:05;36.63;;;27.53;;
62673;SDS011;62269;47.594;17.638;2022-11-15T03:17:13;35.10;;;24.37;;
62673;SDS011;62269;47.594;17.638;2022-11-15T03:18:08;37.72;;;27.65;;
62673;SDS011;62269;47.594;17.638;2022-11-15T03:19:04;36.30;;;26.92;;
62673;SDS011;62269;47.594;17.638;2022-11-15T03:19:53;34.60;;;26.52;;
62673;SDS011;62269;47.594;17.638;2022-11-15T03:20:41;39.53;;;28.80;;
62673;SDS011;62269;47.594;17.638;2022-11-15T03:21:29;35.72;;;27.75;;
62673;SDS011;62269;47.594;17.638;2022-11-15T03:22:17;32.80;;;26.87;;
62673;SDS011;62269;47.594;17.638;2022-11-15T03:23:08;36.58;;;28.02;;
62673;SDS011;62269;47.594;17.638;2022-11-15T03:23:55;35.33;;;27.67;;
62673;SDS011;62269;47.594;17.638;2022-11-15T03:24:45;35.42;;;27.65;;
62673;SDS011;62269;47.594;17.638;2022-11-15T03:25:34;34.45;;;27.42;;
62673;SDS011;62269;47.594;17.638;2022-11-15T03:26:25;34.55;;;28.00;;
62673;SDS011;62269;47.594;17.638;2022-11-15T03:27:13;38.22;;;28.62;;
62673;SDS011;62269;47.594;17.638;2022-11-15T03:28:02;40.47;;;30.23;;
62673;SDS011;62269;47.594;17.638;2022-11-15T03:28:55;36.75;;;28.25;;
62673;SDS011;62269;47.594;17.638;2022-11-15T03:29:45;38.20;;;28.87;;
62673;SDS011;62269;47.594;17.638;2022-11-15T03:30:34;35.72;;;28.17;;
62673;SDS011;62269;47.594;17.638;2022-11-15T03:31:22;38.13;;;29.67;;
62673;SDS011;62269;47.594;17.638;2022-11-15T03:32:36;39.08;;;29.42;;
62673;SDS011;62269;47.594;17.638;2022-11-15T03:33:38;38.85;;;29.08;;
62673;SDS011;62269;47.594;17.638;2022-11-15T03:34:27;37.78;;;28.98;;
62673;SDS011;62269;47.594;17.638;2022-11-15T03:35:22;37.63;;;30.02;;
62673;SDS011;62269;47.594;17.638;2022-11-15T03:36:14;36.50;;;28.30;;
62673;SDS011;62269;47.594;17.638;2022-11-15T03:37:01;36.78;;;27.70;;
62673;SDS011;62269;47.594;17.638;2022-11-15T03:37:51;37.17;;;28.95;;
62673;SDS011;62269;47.594;17.638;2022-11-15T03:38:41;36.55;;;27.95;;
62673;SDS011;62269;47.594;17.638;2022-11-15T03:39:28;38.63;;;29.25;;
62673;SDS011;62269;47.594;17.638;2022-11-15T03:40:16;37.97;;;28.90;;
62673;SDS011;62269;47.594;17.638;2022-11-15T03:41:07;35.20;;;27.30;;
62673;SDS011;62269;47.594;17.638;2022-11-15T03:43:10;35.55;;;27.55;;
62673;SDS011;62269;47.594;17.638;2022-11-15T03:45:16;35.60;;;27.65;;
62673;SDS011;62269;47.594;17.638;2022-11-15T03:46:14;34.70;;;28.15;;
62673;SDS011;62269;47.594;17.638;2022-11-15T03:47:15;36.45;;;27.25;;
62673;SDS011;62269;47.594;17.638;2022-11-15T03:48:05;34.80;;;28.23;;
62673;SDS011;62269;47.594;17.638;2022-11-15T03:49:00;36.78;;;27.45;;
62673;SDS011;62269;47.594;17.638;2022-11-15T03:49:52;39.15;;;29.35;;
62673;SDS011;62269;47.594;17.638;2022-11-15T03:50:41;37.83;;;29.12;;
62673;SDS011;62269;47.594;17.638;2022-11-15T03:51:29;39.58;;;29.45;;
62673;SDS011;62269;47.594;17.638;2022-11-15T03:52:19;37.75;;;28.77;;
62673;SDS011;62269;47.594;17.638;2022-11-15T03:53:07;34.88;;;27.92;;
62673;SDS011;62269;47.594;17.638;2022-11-15T03:53:54;36.95;;;28.65;;
62673;SDS011;62269;47.594;17.638;2022-11-15T03:54:51;33.85;;;26.70;;
62673;SDS011;62269;47.594;17.638;2022-11-15T03:55:40;37.13;;;27.90;;
62673;SDS011;62269;47.594;17.638;2022-11-15T03:56:27;35.00;;;27.08;;
62673;SDS011;62269;47.594;17.638;2022-11-15T03:57:14;33.08;;;26.00;;
62673;SDS011;62269;47.594;17.638;2022-11-15T03:58:01;35.95;;;27.23;;
62673;SDS011;62269;47.594;17.638;2022-11-15T03:58:48;37.03;;;27.48;;
62673;SDS011;62269;47.594;17.638;2022-11-15T03:59:35;36.25;;;27.90;;
62673;SDS011;62269;47.594;17.638;2022-11-15T04:00:21;38.13;;;29.08;;
62673;SDS011;62269;47.594;17.638;2022-11-15T04:01:08;35.05;;;27.92;;
62673;SDS011;62269;47.594;17.638;2022-11-15T04:01:55;38.95;;;28.42;;
62673;SDS011;62269;47.594;17.638;2022-11-15T04:02:42;36.30;;;28.77;;
62673;SDS011;62269;47.594;17.638;2022-11-15T04:03:29;39.95;;;28.08;;
62673;SDS011;62269;47.594;17.638;2022-11-15T04:04:16;38.83;;;27.48;;
62673;SDS011;62269;47.594;17.638;2022-11-15T04:05:03;38.97;;;28.62;;
62673;SDS011;62269;47.594;17.638;2022-11-15T04:05:50;37.55;;;28.00;;
62673;SDS011;62269;47.594;17.638;2022-11-15T04:06:37;36.95;;;28.60;;
62673;SDS011;62269;47.594;17.638;2022-11-15T04:07:24;35.25;;;27.77;;
62673;SDS011;62269;47.594;17.638;2022-11-15T04:08:12;34.92;;;27.77;;
62673;SDS011;62269;47.594;17.638;2022-11-15T04:08:58;34.33;;;26.45;;
62673;SDS011;62269;47.594;17.638;2022-11-15T04:09:46;37.13;;;28.80;;
62673;SDS011;62269;47.594;17.638;2022-11-15T04:10:54;33.65;;;26.17;;
62673;SDS011;62269;47.594;17.638;2022-11-15T04:11:41;33.15;;;26.92;;
62673;SDS011;62269;47.594;17.638;2022-11-15T04:12:28;35.63;;;27.90;;
62673;SDS011;62269;47.594;17.638;2022-11-15T04:13:19;37.42;;;28.30;;
62673;SDS011;62269;47.594;17.638;2022-11-15T04:14:06;35.55;;;26.67;;
62673;SDS011;62269;47.594;17.638;2022-11-15T04:14:53;34.28;;;26.77;;
62673;SDS011;62269;47.594;17.638;2022-11-15T04:15:53;36.08;;;26.73;;
62673;SDS011;62269;47.594;17.638;2022-11-15T04:16:40;38.45;;;27.83;;
62673;SDS011;62269;47.594;17.638;2022-11-15T04:17:29;33.97;;;26.62;;
62673;SDS011;62269;47.594;17.638;2022-11-15T04:18:16;36.22;;;27.27;;
62673;SDS011;62269;47.594;17.638;2022-11-15T04:19:03;34.15;;;26.73;;
62673;SDS011;62269;47.594;17.638;2022-11-15T04:20:10;35.50;;;26.87;;
62673;SDS011;62269;47.594;17.638;2022-11-15T04:21:16;34.78;;;26.20;;
62673;SDS011;62269;47.594;17.638;2022-11-15T04:22:21;35.67;;;26.33;;
62673;SDS011;62269;47.594;17.638;2022-11-15T04:23:27;35.03;;;26.50;;
62673;SDS011;62269;47.594;17.638;2022-11-15T04:24:32;35.22;;;26.77;;
62673;SDS011;62269;47.594;17.638;2022-11-15T04:25:19;38.42;;;26.85;;
62673;SDS011;62269;47.594;17.638;2022-11-15T04:26:58;36.67;;;28.67;;
62673;SDS011;62269;47.594;17.638;2022-11-15T04:27:45;35.42;;;27.95;;
62673;SDS011;62269;47.594;17.638;2022-11-15T04:28:32;33.55;;;27.42;;
62673;SDS011;62269;47.594;17.638;2022-11-15T04:29:19;33.78;;;26.92;;
62673;SDS011;62269;47.594;17.638;2022-11-15T04:30:21;35.67;;;26.50;;
62673;SDS011;62269;47.594;17.638;2022-11-15T04:31:08;36.22;;;26.42;;
62673;SDS011;62269;47.594;17.638;2022-11-15T04:31:55;35.83;;;27.83;;
62673;SDS011;62269;47.594;17.638;2022-11-15T04:32:42;34.70;;;28.38;;
62673;SDS011;62269;47.594;17.638;2022-11-15T04:33:29;37.75;;;27.75;;
62673;SDS011;62269;47.594;17.638;2022-11-15T04:34:16;36.15;;;28.20;;
62673;SDS011;62269;47.594;17.638;2022-11-15T04:35:03;35.58;;;27.02;;
62673;SDS011;62269;47.594;17.638;2022-11-15T04:35:50;34.08;;;27.95;;
62673;SDS011;62269;47.594;17.638;2022-11-15T04:36:56;38.58;;;28.08;;
62673;SDS011;62269;47.594;17.638;2022-11-15T04:37:58;34.55;;;26.05;;
62673;SDS011;62269;47.594;17.638;2022-11-15T04:38:45;38.70;;;28.10;;
62673;SDS011;62269;47.594;17.638;2022-11-15T04:39:32;36.45;;;27.02;;
62673;SDS011;62269;47.594;17.638;2022-11-15T04:40:19;35.63;;;28.00;;
62673;SDS011;62269;47.594;17.638;2022-11-15T04:41:06;34.90;;;27.62;;
62673;SDS011;62269;47.594;17.638;2022-11-15T04:41:53;34.15;;;26.77;;
62673;SDS011;62269;47.594;17.638;2022-11-15T04:42:41;35.20;;;27.42;;
62673;SDS011;62269;47.594;17.638;2022-11-15T04:43:29;35.35;;;28.40;;
62673;SDS011;62269;47.594;17.638;2022-11-15T04:44:16;36.42;;;26.58;;
62673;SDS011;62269;47.594;17.638;2022-11-15T04:45:03;35.67;;;27.30;;
62673;SDS011;62269;47.594;17.638;2022-11-15T04:45:50;36.53;;;27.48;;
62673;SDS011;62269;47.594;17.638;2022-11-15T04:46:37;36.85;;;27.80;;
62673;SDS011;62269;47.594;17.638;2022-11-15T04:47:24;34.67;;;27.20;;
62673;SDS011;62269;47.594;17.638;2022-11-15T04:48:11;37.63;;;28.15;;
62673;SDS011;62269;47.594;17.638;2022-11-15T04:48:58;33.95;;;26.40;;
62673;SDS011;62269;47.594;17.638;2022-11-15T04:49:45;34.97;;;27.17;;
62673;SDS011;62269;47.594;17.638;2022-11-15T04:50:32;31.67;;;26.58;;
62673;SDS011;62269;47.594;17.638;2022-11-15T04:51:19;36.03;;;26.37;;
62673;SDS011;62269;47.594;17.638;2022-11-15T04:52:06;34.28;;;26.20;;
62673;SDS011;62269;47.594;17.638;2022-11-15T04:52:53;35.90;;;26.55;;
62673;SDS011;62269;47.594;17.638;2022-11-15T04:53:40;33.85;;;26.62;;
62673;SDS011;62269;47.594;17.638;2022-11-15T04:54:27;33.38;;;27.15;;
62673;SDS011;62269;47.594;17.638;2022-11-15T04:55:14;36.65;;;26.33;;
62673;SDS011;62269;47.594;17.638;2022-11-15T04:56:01;35.33;;;26.73;;
62673;SDS011;62269;47.594;17.638;2022-11-15T04:56:48;35.13;;;27.08;;
62673;SDS011;62269;47.594;17.638;2022-11-15T04:57:35;34.72;;;27.08;;
62673;SDS011;62269;47.594;17.638;2022-11-15T04:58:21;32.20;;;26.40;;
62673;SDS011;62269;47.594;17.638;2022-11-15T04:59:08;34.15;;;25.88;;
62673;SDS011;62269;47.594;17.638;2022-11-15T04:59:55;32.70;;;25.95;;
62673;SDS011;62269;47.594;17.638;2022-11-15T05:00:42;34.50;;;26.33;;
62673;SDS011;62269;47.594;17.638;2022-11-15T05:01:29;33.03;;;25.83;;
62673;SDS011;62269;47.594;17.638;2022-11-15T05:02:16;34.95;;;27.75;;
62673;SDS011;62269;47.594;17.638;2022-11-15T05:03:03;31.75;;;25.27;;
62673;SDS011;62269;47.594;17.638;2022-11-15T05:04:09;32.78;;;25.48;;
62673;SDS011;62269;47.594;17.638;2022-11-15T05:05:05;32.03;;;25.37;;
62673;SDS011;62269;47.594;17.638;2022-11-15T05:05:53;32.83;;;25.33;;
62673;SDS011;62269;47.594;17.638;2022-11-15T05:06:40;36.45;;;27.20;;
62673;SDS011;62269;47.594;17.638;2022-11-15T05:07:26;32.40;;;26.23;;
62673;SDS011;62269;47.594;17.638;2022-11-15T05:08:13;32.40;;;26.12;;
62673;SDS011;62269;47.594;17.638;2022-11-15T05:09:00;32.50;;;24.65;;
62673;SDS011;62269;47.594;17.638;2022-11-15T05:09:47;34.80;;;25.83;;
62673;SDS011;62269;47.594;17.638;2022-11-15T05:10:34;34.88;;;26.40;;
62673;SDS011;62269;47.594;17.638;2022-11-15T05:11:21;33.05;;;26.48;;
62673;SDS011;62269;47.594;17.638;2022-11-15T05:12:08;32.67;;;26.17;;
62673;SDS011;62269;47.594;17.638;2022-11-15T05:12:55;35.33;;;26.58;;
62673;SDS011;62269;47.594;17.638;2022-11-15T05:13:42;32.15;;;26.33;;
62673;SDS011;62269;47.594;17.638;2022-11-15T05:14:29;40.10;;;28.27;;
62673;SDS011;62269;47.594;17.638;2022-11-15T05:15:16;39.92;;;27.25;;
62673;SDS011;62269;47.594;17.638;2022-11-15T05:16:03;33.72;;;25.88;;
62673;SDS011;62269;47.594;17.638;2022-11-15T05:16:50;31.70;;;25.75;;
62673;SDS011;62269;47.594;17.638;2022-11-15T05:17:37;35.38;;;27.08;;
62673;SDS011;62269;47.594;17.638;2022-11-15T05:18:24;35.78;;;27.52;;
62673;SDS011;62269;47.594;17.638;2022-11-15T05:19:10;37.60;;;27.45;;
62673;SDS011;62269;47.594;17.638;2022-11-15T05:19:57;32.38;;;26.50;;
62673;SDS011;62269;47.594;17.638;2022-11-15T05:20:44;33.10;;;26.80;;